createdAt,value
2023-02-18T00:00:21.801Z,99197.5
2023-02-18T00:02:27.878Z,99208.25
2023-02-18T00:04:33.820Z,99219.42
2023-02-18T00:06:39.238Z,99224.05
2023-02-18T00:08:44.442Z,99215.91
2023-02-18T00:10:49.822Z,99232.2
2023-02-18T00:12:55.148Z,99239.59
2023-02-18T00:15:00.796Z,99261.5
2023-02-18T00:17:06.113Z,99242.28
2023-02-18T00:19:11.544Z,99237.75
2023-02-18T00:21:17.148Z,99235.44
2023-02-18T00:23:22.257Z,99252.22
2023-02-18T00:25:27.429Z,99255.66
2023-02-18T00:27:33.468Z,99255.3
2023-02-18T00:29:38.722Z,99248.63
2023-02-18T00:31:44.284Z,99263.19
2023-02-18T00:33:49.675Z,99256.43
2023-02-18T00:35:55.004Z,99261.11
2023-02-18T00:38:00.213Z,99255.17
2023-02-18T00:40:05.477Z,99258.8
2023-02-18T00:42:10.540Z,99275.03
2023-02-18T00:44:15.970Z,99252.16
2023-02-18T00:46:21.283Z,99238.34
2023-02-18T00:48:26.738Z,99246.98
2023-02-18T00:50:31.854Z,99241.92
2023-02-18T00:52:36.970Z,99242.52
2023-02-18T00:54:42.219Z,99247.16
2023-02-18T00:56:47.499Z,99255.32
2023-02-18T00:58:52.843Z,99263.28
2023-02-18T01:00:58.133Z,99267.92
2023-02-18T01:03:03.212Z,99263.92
2023-02-18T01:05:08.235Z,99271.52
2023-02-18T01:07:13.486Z,99257.73
2023-02-18T01:09:18.972Z,99269.72
2023-02-18T01:11:24.308Z,99256.77
2023-02-18T01:13:29.869Z,99258.17
2023-02-18T01:15:35.656Z,99255.17
2023-02-18T01:17:40.916Z,99258.56
2023-02-18T01:19:46.362Z,99255.65
2023-02-18T01:21:51.830Z,99263.65
2023-02-18T01:23:57.439Z,99272.34
2023-02-18T01:26:03.445Z,99274.22
2023-02-18T01:28:09.248Z,99272.81
2023-02-18T01:30:14.643Z,99258.97
2023-02-18T01:32:20.709Z,99268.92
2023-02-18T01:34:26.546Z,99279.54
2023-02-18T01:36:31.543Z,99251.91
2023-02-18T01:38:36.973Z,99255.2
2023-02-18T01:40:42.407Z,99263.73
2023-02-18T01:42:47.522Z,99248.72
2023-02-18T01:44:52.695Z,99245.73
2023-02-18T01:46:58.289Z,99258.68
2023-02-18T01:49:04.019Z,99261.81
2023-02-18T01:51:09.183Z,99252.16
2023-02-18T01:53:14.825Z,99261.72
2023-02-18T01:55:20.284Z,99264.37
2023-02-18T01:57:25.678Z,99247.49
2023-02-18T01:59:30.837Z,99266.68
2023-02-18T02:01:36.116Z,99264.47
2023-02-18T02:03:41.385Z,99235.06
2023-02-18T02:05:46.764Z,99259.41
2023-02-18T02:07:51.695Z,99257.27
2023-02-18T02:09:56.840Z,99261.89
2023-02-18T02:12:02.223Z,99264.7
2023-02-18T02:14:07.446Z,99273.23
2023-02-18T02:16:12.910Z,99243.97
2023-02-18T02:18:18.501Z,99265.24
2023-02-18T02:20:23.996Z,99258.67
2023-02-18T02:22:29.171Z,99267.48
2023-02-18T02:24:34.748Z,99256.22
2023-02-18T02:26:39.786Z,99276.47
2023-02-18T02:28:45.060Z,99257.17
2023-02-18T02:30:50.115Z,99256.52
2023-02-18T02:32:55.596Z,99272.92
2023-02-18T02:35:01.036Z,99275.45
2023-02-18T02:37:06.317Z,99278.03
2023-02-18T02:39:11.318Z,99284.27
2023-02-18T02:41:16.553Z,99285.52
2023-02-18T02:43:21.526Z,99286.36
2023-02-18T02:45:26.847Z,99264.17
2023-02-18T02:47:32.559Z,99278.11
2023-02-18T02:49:37.538Z,99299.18
2023-02-18T02:51:45.560Z,99287.28
2023-02-18T02:53:50.804Z,99299.28
2023-02-18T02:55:55.947Z,99303.9
2023-02-18T02:58:01.472Z,99302.66
2023-02-18T03:00:06.790Z,99304.23
2023-02-18T03:02:12.346Z,99303.3
2023-02-18T03:04:17.511Z,99314.02
2023-02-18T03:06:22.936Z,99293.72
2023-02-18T03:08:28.184Z,99308.25
2023-02-18T03:10:33.752Z,99312.95
2023-02-18T03:12:39.215Z,99297.1
2023-02-18T03:14:44.539Z,99305.95
2023-02-18T03:16:49.724Z,99322.15
2023-02-18T03:18:56.050Z,99329.7
2023-02-18T03:21:01.280Z,99324.56
2023-02-18T03:23:06.781Z,99310.84
2023-02-18T03:25:12.086Z,99316.42
2023-02-18T03:27:17.671Z,99316.59
2023-02-18T03:29:22.957Z,99319.3
2023-02-18T03:31:28.189Z,99320.05
2023-02-18T03:33:34.086Z,99319.94
2023-02-18T03:35:39.602Z,99315.59
2023-02-18T03:37:45.164Z,99307.73
2023-02-18T03:39:50.273Z,99317.58
2023-02-18T03:41:55.525Z,99325.3
2023-02-18T03:44:00.872Z,99325.72
2023-02-18T03:46:06.203Z,99322.48
2023-02-18T03:48:12.939Z,99346.13
2023-02-18T03:50:18.109Z,99327.76
2023-02-18T03:52:23.317Z,99340.56
2023-02-18T03:54:28.402Z,99311.06
2023-02-18T03:56:33.469Z,99304.01
2023-02-18T03:58:38.632Z,99326.17
2023-02-18T04:00:43.941Z,99329.63
2023-02-18T04:02:48.885Z,99339.06
2023-02-18T04:04:54.538Z,99340.94
2023-02-18T04:07:02.530Z,99323.13
2023-02-18T04:09:07.475Z,99329.7
2023-02-18T04:11:12.714Z,99334.45
2023-02-18T04:13:18.180Z,99341.77
2023-02-18T04:15:23.465Z,99344.13
2023-02-18T04:17:28.568Z,99341.67
2023-02-18T04:19:33.852Z,99339.91
2023-02-18T04:21:39.150Z,99351.28
2023-02-18T04:23:44.230Z,99346.42
2023-02-18T04:25:49.496Z,99347.64
2023-02-18T04:27:54.595Z,99352.31
2023-02-18T04:30:00.098Z,99347.72
2023-02-18T04:32:05.442Z,99348.63
2023-02-18T04:34:10.680Z,99348.19
2023-02-18T04:36:16.167Z,99350.84
2023-02-18T04:38:21.357Z,99349.56
2023-02-18T04:40:26.508Z,99342.84
2023-02-18T04:42:31.982Z,99344.31
2023-02-18T04:44:37.524Z,99345.05
2023-02-18T04:46:42.810Z,99348.27
2023-02-18T04:48:47.940Z,99345.48
2023-02-18T04:50:53.191Z,99345.2
2023-02-18T04:52:58.654Z,99355.39
2023-02-18T04:55:04.028Z,99357.57
2023-02-18T04:57:09.355Z,99351.34
2023-02-18T04:59:14.651Z,99349.56
2023-02-18T05:01:20.109Z,99330.68
2023-02-18T05:03:25.829Z,99353.06
2023-02-18T05:05:30.951Z,99351.62
2023-02-18T05:07:36.070Z,99344.32
2023-02-18T05:09:44.588Z,99334.09
2023-02-18T05:11:49.733Z,99347.92
2023-02-18T05:13:55.125Z,99346.13
2023-02-18T05:16:00.194Z,99347.4
2023-02-18T05:18:05.411Z,99358.17
2023-02-18T05:20:11.412Z,99354.81
2023-02-18T05:22:17.009Z,99347.25
2023-02-18T05:24:22.157Z,99362.55
2023-02-18T05:26:27.211Z,99349.67
2023-02-18T05:28:32.871Z,99362.72
2023-02-18T05:30:38.405Z,99347.55
2023-02-18T05:32:43.863Z,99370.48
2023-02-18T05:34:48.866Z,99378.81
2023-02-18T05:36:54.383Z,99390.55
2023-02-18T05:38:59.524Z,99390.69
2023-02-18T05:41:04.560Z,99381.44
2023-02-18T05:43:09.764Z,99381.84
2023-02-18T05:45:15.388Z,99389.48
2023-02-18T05:47:20.801Z,99389.06
2023-02-18T05:49:26.445Z,99381.3
2023-02-18T05:51:31.869Z,99385.41
2023-02-18T05:53:37.354Z,99389.91
2023-02-18T05:55:42.697Z,99401.81
2023-02-18T05:57:47.741Z,99380.89
2023-02-18T05:59:52.780Z,99381.83
2023-02-18T06:01:57.781Z,99387.63
2023-02-18T06:04:03.064Z,99386.22
2023-02-18T06:06:09.438Z,99401.92
2023-02-18T06:08:15.579Z,99396.82
2023-02-18T06:10:21.054Z,99399.31
2023-02-18T06:12:26.432Z,99394.47
2023-02-18T06:14:31.623Z,99412.31
2023-02-18T06:16:36.684Z,99425.22
2023-02-18T06:18:41.868Z,99406.88
2023-02-18T06:20:47.413Z,99418.9
2023-02-18T06:22:52.927Z,99428.45
2023-02-18T06:24:58.513Z,99437.05
2023-02-18T06:27:03.629Z,99425.52
2023-02-18T06:29:08.624Z,99449.98
2023-02-18T06:31:13.910Z,99448.3
2023-02-18T06:33:19.512Z,99451.13
2023-02-18T06:35:24.711Z,99461.24
2023-02-18T06:37:30.248Z,99449.51
2023-02-18T06:39:35.498Z,99467.47
2023-02-18T06:41:41.185Z,99463.35
2023-02-18T06:43:46.536Z,99458.77
2023-02-18T06:45:51.972Z,99475.78
2023-02-18T06:47:57.750Z,99459.88
2023-02-18T06:50:03.755Z,99487.6
2023-02-18T06:52:09.569Z,99470.31
2023-02-18T06:54:15.387Z,99473.03
2023-02-18T06:56:21.557Z,99472.45
2023-02-18T06:58:27.908Z,99482.95
2023-02-18T07:00:34.890Z,99470.42
2023-02-18T07:02:41.572Z,99480.8
2023-02-18T07:04:48.064Z,99494.78
2023-02-18T07:06:54.529Z,99488.22
2023-02-18T07:09:01.063Z,99475.89
2023-02-18T07:11:07.572Z,99490.44
2023-02-18T07:13:13.879Z,99495.45
2023-02-18T07:15:20.200Z,99496.52
2023-02-18T07:17:27.438Z,99496.94
2023-02-18T07:19:33.224Z,99484.3
2023-02-18T07:21:38.894Z,99496.86
2023-02-18T07:23:44.415Z,99499
2023-02-18T07:25:50.515Z,99507.53
2023-02-18T07:27:56.381Z,99507.39
2023-02-18T07:30:02.327Z,99509.68
2023-02-18T07:32:09.019Z,99506.95
2023-02-18T07:34:14.933Z,99507.61
2023-02-18T07:36:21.115Z,99501.63
2023-02-18T07:38:26.884Z,99494.38
2023-02-18T07:40:32.957Z,99494.91
2023-02-18T07:42:39.235Z,99497.86
2023-02-18T07:44:44.891Z,99492.27
2023-02-18T07:46:51.175Z,99491.06
2023-02-18T07:48:56.755Z,99499.58
2023-02-18T07:51:02.383Z,99496.75
2023-02-18T07:53:08.388Z,99493.3
2023-02-18T07:55:15.292Z,99484.75
2023-02-18T07:57:21.226Z,99486.17
2023-02-18T07:59:27.313Z,99500.33
2023-02-18T08:01:33.667Z,99473.98
2023-02-18T08:03:39.544Z,99482.53
2023-02-18T08:05:45.015Z,99494.05
2023-02-18T08:07:51.329Z,99479.41
2023-02-18T08:09:58.065Z,99472.59
2023-02-18T08:12:05.422Z,99487.05
2023-02-18T08:14:11.862Z,99479.41
2023-02-18T08:16:18.683Z,99470.11
2023-02-18T08:18:26.650Z,99455.19
2023-02-18T08:20:32.375Z,99479.81
2023-02-18T08:22:38.119Z,99477.27
2023-02-18T08:24:44.988Z,99477.45
2023-02-18T08:27:02.780Z,99479.75
2023-02-18T08:29:08.659Z,99477.7
2023-02-18T08:31:14.459Z,99491.69
2023-02-18T08:33:22.102Z,99486.76
2023-02-18T08:35:27.396Z,99497.5
2023-02-18T08:37:56.632Z,99493.89
2023-02-18T08:40:03.112Z,99491.09
2023-02-18T08:42:09.565Z,99500.07
2023-02-18T08:44:15.278Z,99508.2
2023-02-18T08:46:35.650Z,99500.13
2023-02-18T08:48:43.148Z,99507.54
2023-02-18T08:50:49.734Z,99506.31
2023-02-18T08:52:55.320Z,99509.77
2023-02-18T08:55:01.938Z,99500.23
2023-02-18T08:57:08.106Z,99513.89
2023-02-18T08:59:13.867Z,99517.35
2023-02-18T09:01:20.446Z,99522.28
2023-02-18T09:03:27.084Z,99528.84
2023-02-18T09:05:32.958Z,99512.25
2023-02-18T09:07:38.110Z,99515.28
2023-02-18T09:09:44.095Z,99513.16
2023-02-18T09:11:50.222Z,99515.13
2023-02-18T09:13:56.493Z,99529.27
2023-02-18T09:16:02.179Z,99517.5
2023-02-18T09:18:07.885Z,99528.11
2023-02-18T09:20:14.466Z,99523.67
2023-02-18T09:22:20.798Z,99520.55
2023-02-18T09:24:26.547Z,99522.27
2023-02-18T09:26:33.095Z,99528.95
2023-02-18T09:28:39.956Z,99527.78
2023-02-18T09:30:46.543Z,99528.34
2023-02-18T09:32:52.982Z,99551.96
2023-02-18T09:35:00.621Z,99526.81
2023-02-18T09:37:07.085Z,99540.87
2023-02-18T09:39:13.791Z,99524.55
2023-02-18T09:41:22.096Z,99529.55
2023-02-18T09:43:28.352Z,99542.09
2023-02-18T09:45:35.263Z,99537.95
2023-02-18T09:47:43.728Z,99534.75
2023-02-18T09:49:50.655Z,99543.3
2023-02-18T09:51:57.068Z,99545.95
2023-02-18T09:54:03.714Z,99528.34
2023-02-18T09:56:09.590Z,99533.12
2023-02-18T09:58:16.463Z,99535.02
2023-02-18T10:00:24.166Z,99556.98
2023-02-18T10:02:34.229Z,99547.92
2023-02-18T10:04:41.818Z,99544.06
2023-02-18T10:06:49.967Z,99552.77
2023-02-18T10:08:57.043Z,99556.66
2023-02-18T10:11:04.428Z,99550.8
2023-02-18T10:13:10.828Z,99554.94
2023-02-18T10:15:18.097Z,99563.89
2023-02-18T10:17:26.340Z,99552.61
2023-02-18T10:19:32.367Z,99555.82
2023-02-18T10:21:38.268Z,99568.41
2023-02-18T10:23:45.191Z,99549.66
2023-02-18T10:25:53.667Z,99547.25
2023-02-18T10:28:03.165Z,99540.65
2023-02-18T10:30:10.179Z,99541.83
2023-02-18T10:32:18.559Z,99552.62
2023-02-18T10:34:26.113Z,99545.61
2023-02-18T10:36:32.838Z,99546.55
2023-02-18T10:38:39.179Z,99549.99
2023-02-18T10:40:47.089Z,99541.17
2023-02-18T10:42:55.280Z,99559.53
2023-02-18T10:45:02.117Z,99549.09
2023-02-18T10:47:08.954Z,99552.28
2023-02-18T10:49:16.572Z,99540.27
2023-02-18T10:51:22.904Z,99538.22
2023-02-18T10:53:29.494Z,99547.2
2023-02-18T10:55:36.252Z,99533.54
2023-02-18T10:57:42.732Z,99534.19
2023-02-18T10:59:49.383Z,99533.86
2023-02-18T11:01:56.242Z,99531.16
2023-02-18T11:04:03.292Z,99519.31
2023-02-18T11:06:13.040Z,99522.94
2023-02-18T11:08:19.583Z,99533.95
2023-02-18T11:10:25.293Z,99527.84
2023-02-18T11:12:32.253Z,99522.52
2023-02-18T11:14:39.029Z,99514.02
2023-02-18T11:16:45.796Z,99520.13
2023-02-18T11:18:52.279Z,99515.19
2023-02-18T11:20:59.290Z,99506.8
2023-02-18T11:23:05.837Z,99504.58
2023-02-18T11:25:12.723Z,99514.39
2023-02-18T11:27:19.889Z,99498.59
2023-02-18T11:29:26.699Z,99501.88
2023-02-18T11:31:33.489Z,99495.2
2023-02-18T11:33:39.859Z,99502.34
2023-02-18T11:35:45.696Z,99508.12
2023-02-18T11:37:52.321Z,99498.48
2023-02-18T11:39:58.499Z,99504.98
2023-02-18T11:42:04.954Z,99484.27
2023-02-18T11:44:11.786Z,99484.84
2023-02-18T11:46:18.352Z,99495.8
2023-02-18T11:48:25.468Z,99497.37
2023-02-18T11:50:32.023Z,99493.33
2023-02-18T11:52:38.434Z,99490.17
2023-02-18T11:54:45.482Z,99497.92
2023-02-18T11:56:55.408Z,99491.5
2023-02-18T11:59:02.074Z,99483.72
2023-02-18T12:01:09.474Z,99480.95
2023-02-18T12:03:16.828Z,99474.67
2023-02-18T12:05:23.888Z,99478.96
2023-02-18T12:07:30.474Z,99478.54
2023-02-18T12:09:37.347Z,99479.81
2023-02-18T12:11:44.351Z,99465.66
2023-02-18T12:13:51.089Z,99471.73
2023-02-18T12:15:59.269Z,99464.13
2023-02-18T12:18:06.096Z,99464.66
2023-02-18T12:20:15.115Z,99470.95
2023-02-18T12:22:21.187Z,99465.09
2023-02-18T12:24:27.384Z,99459.09
2023-02-18T12:26:35.836Z,99459.08
2023-02-18T12:28:44.634Z,99451.53
2023-02-18T12:30:52.815Z,99463.74
2023-02-18T12:32:58.908Z,99465.41
2023-02-18T12:35:05.526Z,99453.53
2023-02-18T12:37:16.676Z,99450.03
2023-02-18T12:39:25.561Z,99442.14
2023-02-18T12:41:34.621Z,99446.19
2023-02-18T12:43:40.640Z,99439.68
2023-02-18T12:45:46.629Z,99456.13
2023-02-18T12:47:54.258Z,99446.57
2023-02-18T12:50:02.169Z,99449.61
2023-02-18T12:52:10.040Z,99439.32
2023-02-18T12:54:17.242Z,99431.91
2023-02-18T12:56:24.193Z,99435.38
2023-02-18T12:58:31.753Z,99435.01
2023-02-18T13:00:39.327Z,99437.13
2023-02-18T13:02:46.951Z,99425.77
2023-02-18T13:04:55.092Z,99431.81
2023-02-18T13:07:02.641Z,99425.25
2023-02-18T13:09:10.277Z,99430
2023-02-18T13:11:18.468Z,99440.7
2023-02-18T13:13:25.656Z,99426.91
2023-02-18T13:15:32.760Z,99435.47
2023-02-18T13:17:39.270Z,99425.02
2023-02-18T13:19:45.884Z,99420.31
2023-02-18T13:21:53.883Z,99425.77
2023-02-18T13:24:00.814Z,99427.98
2023-02-18T13:26:12.263Z,99417.95
2023-02-18T13:28:19.728Z,99417.62
2023-02-18T13:30:27.302Z,99418.3
2023-02-18T13:32:37.491Z,99413.27
2023-02-18T13:34:44.256Z,99415.67
2023-02-18T13:36:51.124Z,99417.91
2023-02-18T13:39:00.889Z,99413.89
2023-02-18T13:41:09.728Z,99424.98
2023-02-18T13:43:16.327Z,99428.11
2023-02-18T13:45:25.524Z,99410.17
2023-02-18T13:47:32.604Z,99425.72
2023-02-18T13:49:40.743Z,99423.49
2023-02-18T13:51:48.330Z,99426.72
2023-02-18T13:53:55.594Z,99424.49
2023-02-18T13:56:03.228Z,99424.09
2023-02-18T13:58:13.419Z,99428.53
2023-02-18T14:00:20.684Z,99413.82
2023-02-18T14:02:30.164Z,99424.17
2023-02-18T14:04:39.985Z,99414.8
2023-02-18T14:06:46.071Z,99416.36
2023-02-18T14:08:54.417Z,99415.38
2023-02-18T14:11:02.163Z,99407.09
2023-02-18T14:13:10.314Z,99399.61
2023-02-18T14:15:18.428Z,99396.97
2023-02-18T14:17:31.194Z,99393.3
2023-02-18T14:19:38.704Z,99392.13
2023-02-18T14:21:47.167Z,99379.89
2023-02-18T14:23:54.794Z,99383.42
2023-02-18T14:26:03.246Z,99378.33
2023-02-18T14:28:11.528Z,99379.66
2023-02-18T14:30:19.979Z,99370.37
2023-02-18T14:32:30.034Z,99369.45
2023-02-18T14:34:42.033Z,99367.98
2023-02-18T14:36:53.579Z,99360.91
2023-02-18T14:39:02.424Z,99350.99
2023-02-18T14:41:12.674Z,99343.52
2023-02-18T14:43:21.275Z,99353.78
2023-02-18T14:45:27.851Z,99353.83
2023-02-18T14:47:37.203Z,99347.83
2023-02-18T14:49:44.787Z,99355.42
2023-02-18T14:51:53.276Z,99357.39
2023-02-18T14:54:01.857Z,99348.69
2023-02-18T14:56:14.040Z,99341.2
2023-02-18T14:58:22.232Z,99339.98
2023-02-18T15:00:31.312Z,99343.27
2023-02-18T15:02:37.886Z,99336.7
2023-02-18T15:04:45.938Z,99349.42
2023-02-18T15:06:53.462Z,99345.16
2023-02-18T15:09:01.145Z,99342.77
2023-02-18T15:11:13.835Z,99342.63
2023-02-18T15:13:25.681Z,99340.22
2023-02-18T15:15:41.016Z,99336.95
2023-02-18T15:17:48.345Z,99344.61
2023-02-18T15:19:56.628Z,99347.78
2023-02-18T15:22:04.260Z,99341.54
2023-02-18T15:24:21.866Z,99337.61
2023-02-18T15:26:29.043Z,99339.92
2023-02-18T15:28:35.404Z,99334
2023-02-18T15:30:42.262Z,99333.66
2023-02-18T15:32:51.796Z,99336.05
2023-02-18T15:34:58.567Z,99342.39
2023-02-18T15:37:09.591Z,99337.67
2023-02-18T15:39:24.273Z,99336.88
2023-02-18T15:41:34.951Z,99337.12
2023-02-18T15:43:45.434Z,99338.91
2023-02-18T15:45:55.523Z,99332.23
2023-02-18T15:48:02.169Z,99340.27
2023-02-18T15:50:12.604Z,99340.68
2023-02-18T15:52:21.118Z,99349.51
2023-02-18T15:54:28.623Z,99348.67
2023-02-18T15:56:35.406Z,99349.63
2023-02-18T15:58:47.067Z,99341.36
2023-02-18T16:00:57.499Z,99347.8
2023-02-18T16:03:13.158Z,99347.48
2023-02-18T16:05:21.790Z,99348.52
2023-02-18T16:07:30.274Z,99353.06
2023-02-18T16:09:45.041Z,99355.42
2023-02-18T16:11:56.797Z,99352.47
2023-02-18T16:14:10.841Z,99362.84
2023-02-18T16:16:18.329Z,99366.36
2023-02-18T16:18:30.006Z,99378.59
2023-02-18T16:20:39.363Z,99379.41
2023-02-18T16:22:47.097Z,99377.22
2023-02-18T16:24:57.003Z,99373.88
2023-02-18T16:27:06.002Z,99375.72
2023-02-18T16:29:15.898Z,99375
2023-02-18T16:31:24.995Z,99376.52
2023-02-18T16:33:31.369Z,99378.13
2023-02-18T16:35:51.697Z,99383.89
2023-02-18T16:38:02.278Z,99384.38
2023-02-18T16:40:12.355Z,99382.05
2023-02-18T16:42:24.030Z,99379.7
2023-02-18T16:44:32.552Z,99383.85
2023-02-18T16:46:40.658Z,99387.62
2023-02-18T16:48:54.167Z,99384.22
2023-02-18T16:51:01.921Z,99387.55
2023-02-18T16:53:10.472Z,99388.27
2023-02-18T16:55:20.874Z,99386.47
2023-02-18T16:57:28.117Z,99396.75
2023-02-18T16:59:36.479Z,99395.75
2023-02-18T17:01:46.863Z,99399.69
2023-02-18T17:03:58.147Z,99392.17
2023-02-18T17:06:05.772Z,99393.83
2023-02-18T17:08:13.703Z,99388.02
2023-02-18T17:10:22.559Z,99393.56
2023-02-18T17:12:30.811Z,99388.23
2023-02-18T17:14:39.329Z,99383.02
2023-02-18T17:16:48.298Z,99387.61
2023-02-18T17:19:06.755Z,99390.73
2023-02-18T17:21:14.493Z,99382.98
2023-02-18T17:23:22.713Z,99390.84
2023-02-18T17:25:33.277Z,99393.54
2023-02-18T17:27:49.972Z,99385.38
2023-02-18T17:29:59.289Z,99398
2023-02-18T17:32:09.112Z,99402.3
2023-02-18T17:34:18.272Z,99405.84
2023-02-18T17:36:32.564Z,99393.86
2023-02-18T17:38:41.399Z,99388.52
2023-02-18T17:40:49.347Z,99385.41
2023-02-18T17:42:57.764Z,99387.38
2023-02-18T17:45:17.545Z,99386.04
2023-02-18T17:47:25.004Z,99397.55
2023-02-18T17:49:45.633Z,99405.83
2023-02-18T17:51:56.225Z,99403.14
2023-02-18T17:54:05.538Z,99397.91
2023-02-18T17:56:14.167Z,99385.81
2023-02-18T17:58:23.107Z,99374.5
2023-02-18T18:00:31.766Z,99377.26
2023-02-18T18:02:48.956Z,99385.05
2023-02-18T18:05:07.619Z,99388.02
2023-02-18T18:07:19.855Z,99387.97
2023-02-18T18:09:28.146Z,99380.86
2023-02-18T18:11:38.440Z,99384.35
2023-02-18T18:13:48.946Z,99378.19
2023-02-18T18:15:58.852Z,99372.37
2023-02-18T18:18:11.090Z,99377.1
2023-02-18T18:20:19.351Z,99381.33
2023-02-18T18:22:29.505Z,99387.21
2023-02-18T18:24:55.862Z,99386.34
2023-02-18T18:27:08.664Z,99386.23
2023-02-18T18:29:22.806Z,99386.26
2023-02-18T18:31:33.527Z,99388.95
2023-02-18T18:33:41.929Z,99382.17
2023-02-18T18:35:53.965Z,99382.77
2023-02-18T18:38:08.884Z,99383.97
2023-02-18T18:40:20.938Z,99378.28
2023-02-18T18:42:39.947Z,99375.69
2023-02-18T18:44:51.642Z,99373.31
2023-02-18T18:46:59.920Z,99381.38
2023-02-18T18:49:14.595Z,99382.14
2023-02-18T18:51:27.256Z,99388.92
2023-02-18T18:53:36.617Z,99390.31
2023-02-18T18:55:51.638Z,99392.88
2023-02-18T18:58:03.480Z,99394.42
2023-02-18T19:00:17.562Z,99388.3
2023-02-18T19:02:27.452Z,99393.49
2023-02-18T19:04:56.174Z,99393.58
2023-02-18T19:07:07.913Z,99392.92
2023-02-18T19:09:20.120Z,99385.81
2023-02-18T19:11:30.378Z,99385.87
2023-02-18T19:13:42.664Z,99394.61
2023-02-18T19:15:55.573Z,99394.64
2023-02-18T19:18:06.495Z,99391.48
2023-02-18T19:20:16.425Z,99397.95
2023-02-18T19:22:23.883Z,99398.48
2023-02-18T19:24:33.627Z,99405.17
2023-02-18T19:26:42.972Z,99411.3
2023-02-18T19:28:53.709Z,99420.73
2023-02-18T19:31:03.775Z,99431.51
2023-02-18T19:33:11.948Z,99437.97
2023-02-18T19:35:20.272Z,99443.47
2023-02-18T19:37:34.553Z,99444.94
2023-02-18T19:39:42.977Z,99441.38
2023-02-18T19:41:50.763Z,99436.06
2023-02-18T19:44:04.797Z,99436.06
2023-02-18T19:46:15.650Z,99435.93
2023-02-18T19:48:26.713Z,99436.34
2023-02-18T19:50:35.284Z,99437.29
2023-02-18T19:53:00.697Z,99443.75
2023-02-18T19:55:11.574Z,99450.09
2023-02-18T19:57:24.037Z,99451.59
2023-02-18T19:59:32.129Z,99454.28
2023-02-18T20:01:45.247Z,99458.97
2023-02-18T20:03:56.403Z,99460.44
2023-02-18T20:06:09.163Z,99459.27
2023-02-18T20:08:21.201Z,99469.13
2023-02-18T20:10:39.599Z,99459.54
2023-02-18T20:12:50.720Z,99455.45
2023-02-18T20:15:02.923Z,99451.22
2023-02-18T20:17:13.446Z,99452.79
2023-02-18T20:19:23.569Z,99458.58
2023-02-18T20:21:32.307Z,99469.52
2023-02-18T20:23:43.838Z,99471.22
2023-02-18T20:25:57.969Z,99466.85
2023-02-18T20:28:07.675Z,99459.8
2023-02-18T20:30:17.167Z,99462.42
2023-02-18T20:32:30.382Z,99472
2023-02-18T20:34:39.250Z,99480.43
2023-02-18T20:36:47.288Z,99491.31
2023-02-18T20:39:04.918Z,99496.87
2023-02-18T20:41:23.625Z,99506.45
2023-02-18T20:43:35.815Z,99518.61
2023-02-18T20:45:47.076Z,99520.08
2023-02-18T20:47:55.590Z,99529.05
2023-02-18T20:50:04.322Z,99526.26
2023-02-18T20:52:21.223Z,99528.05
2023-02-18T20:54:30.809Z,99529.31
2023-02-18T20:56:41.128Z,99530.25
2023-02-18T20:58:55.251Z,99536.69
2023-02-18T21:01:17.967Z,99533.91
2023-02-18T21:03:29.955Z,99538.8
2023-02-18T21:05:38.707Z,99533.11
2023-02-18T21:07:49.830Z,99533.77
2023-02-18T21:09:59.874Z,99538.17
2023-02-18T21:12:10.048Z,99547.47
2023-02-18T21:14:21.732Z,99548.25
2023-02-18T21:16:42.695Z,99549.88
2023-02-18T21:18:52.596Z,99557.55
2023-02-18T21:21:08.315Z,99557.81
2023-02-18T21:23:19.048Z,99564.58
2023-02-18T21:25:31.437Z,99568.23
2023-02-18T21:27:40.586Z,99562.72
2023-02-18T21:29:48.507Z,99564.08
2023-02-18T21:31:57.428Z,99563.47
2023-02-18T21:34:16.051Z,99567.02
2023-02-18T21:36:25.520Z,99576.5
2023-02-18T21:38:33.618Z,99577.08
2023-02-18T21:40:44.971Z,99584.5
2023-02-18T21:42:53.620Z,99581.89
2023-02-18T21:45:02.988Z,99588.92
2023-02-18T21:47:11.301Z,99589.36
2023-02-18T21:49:20.245Z,99591.41
2023-02-18T21:51:28.023Z,99599.28
2023-02-18T21:53:37.619Z,99609.53
2023-02-18T21:56:04.074Z,99620.13
2023-02-18T21:58:11.559Z,99620.7
2023-02-18T22:00:22.876Z,99615.72
2023-02-18T22:02:32.007Z,99618.87
2023-02-18T22:04:38.613Z,99614.9
2023-02-18T22:06:46.871Z,99629.16
2023-02-18T22:08:53.820Z,99632.17
2023-02-18T22:11:00.492Z,99637.75
2023-02-18T22:13:08.154Z,99644.5
2023-02-18T22:15:15.424Z,99649.54
2023-02-18T22:17:21.462Z,99651.34
2023-02-18T22:19:28.313Z,99657.52
2023-02-18T22:21:34.626Z,99646.75
2023-02-18T22:23:41.094Z,99649.42
2023-02-18T22:25:47.332Z,99650.41
2023-02-18T22:27:52.952Z,99659.7
2023-02-18T22:29:58.965Z,99656.27
2023-02-18T22:32:05.549Z,99658.39
2023-02-18T22:34:12.348Z,99660.03
2023-02-18T22:36:18.884Z,99658.69
2023-02-18T22:38:25.375Z,99660.24
2023-02-18T22:40:31.602Z,99662.98
2023-02-18T22:42:37.884Z,99666.2
2023-02-18T22:44:43.461Z,99669.03
2023-02-18T22:46:48.578Z,99675.16
2023-02-18T22:48:54.632Z,99682.2
2023-02-18T22:51:00.729Z,99678.82
2023-02-18T22:53:06.772Z,99673.3
2023-02-18T22:55:12.712Z,99688.84
2023-02-18T22:57:18.588Z,99699.62
2023-02-18T22:59:24.089Z,99695.36
2023-02-18T23:01:29.861Z,99698.45
2023-02-18T23:03:35.512Z,99696.86
2023-02-18T23:05:41.392Z,99702.66
2023-02-18T23:07:47.270Z,99700.16
2023-02-18T23:09:52.583Z,99703.02
2023-02-18T23:11:57.758Z,99699.69
2023-02-18T23:14:02.936Z,99694.4
2023-02-18T23:16:08.175Z,99697.95
2023-02-18T23:18:13.400Z,99699.5
2023-02-18T23:20:18.743Z,99708.41
2023-02-18T23:22:24.099Z,99711.16
2023-02-18T23:24:29.447Z,99717.08
2023-02-18T23:26:34.812Z,99712.53
2023-02-18T23:28:40.200Z,99717.49
2023-02-18T23:30:45.743Z,99721.97
2023-02-18T23:32:51.256Z,99716.86
2023-02-18T23:34:57.005Z,99718.06
2023-02-18T23:37:02.373Z,99720.26
2023-02-18T23:39:08.041Z,99719.26
2023-02-18T23:41:13.598Z,99731.31
2023-02-18T23:43:18.860Z,99736
2023-02-18T23:45:24.439Z,99732.11
2023-02-18T23:47:30.012Z,99732.09
2023-02-18T23:49:35.787Z,99736.39
2023-02-18T23:51:41.416Z,99736.37
2023-02-18T23:53:46.626Z,99739.91
2023-02-18T23:55:51.818Z,99733.2
2023-02-18T23:57:57.792Z,99733.86
